createdAt,value
2022-12-08T00:01:12.108Z,40.75
2022-12-08T00:03:39.249Z,36.30
2022-12-08T00:06:25.777Z,33.28
2022-12-08T00:09:11.171Z,36.25
2022-12-08T00:11:39.054Z,38.88
2022-12-08T00:14:05.849Z,39.95
2022-12-08T00:16:32.485Z,53.00
2022-12-08T00:18:59.094Z,47.80
2022-12-08T00:21:25.699Z,55.75
2022-12-08T00:23:55.270Z,39.97
2022-12-08T00:26:22.037Z,39.45
2022-12-08T00:28:48.790Z,43.92
2022-12-08T00:31:16.848Z,40.03
2022-12-08T00:33:43.433Z,38.53
2022-12-08T00:36:13.148Z,49.40
2022-12-08T00:38:40.595Z,36.90
2022-12-08T00:41:12.223Z,47.67
2022-12-08T00:43:38.854Z,44.22
2022-12-08T00:46:05.695Z,46.38
2022-12-08T00:48:32.320Z,41.65
2022-12-08T00:50:59.022Z,42.55
2022-12-08T00:53:25.628Z,45.67
2022-12-08T00:55:52.167Z,67.85
2022-12-08T00:58:18.799Z,67.80
2022-12-08T01:00:45.449Z,47.17
2022-12-08T01:03:13.324Z,52.83
2022-12-08T01:05:39.984Z,55.38
2022-12-08T01:08:07.759Z,51.63
2022-12-08T01:10:39.608Z,50.17
2022-12-08T01:13:06.331Z,50.22
2022-12-08T01:15:32.944Z,39.60
2022-12-08T01:17:59.537Z,35.08
2022-12-08T01:20:26.146Z,35.25
2022-12-08T01:22:52.804Z,39.85
2022-12-08T01:25:19.406Z,37.05
2022-12-08T01:27:45.989Z,37.30
2022-12-08T01:30:13.371Z,47.38
2022-12-08T01:32:40.000Z,48.97
2022-12-08T01:35:06.783Z,54.83
2022-12-08T01:37:33.573Z,59.45
2022-12-08T01:40:00.173Z,56.33
2022-12-08T01:42:26.744Z,53.30
2022-12-08T01:44:55.123Z,57.08
2022-12-08T01:47:24.780Z,58.63
2022-12-08T01:49:51.501Z,53.60
2022-12-08T01:52:29.226Z,56.10
2022-12-08T01:55:02.325Z,43.72
2022-12-08T01:57:37.058Z,44.30
2022-12-08T02:00:10.026Z,47.55
2022-12-08T02:02:52.946Z,62.20
2022-12-08T02:05:22.784Z,65.82
2022-12-08T02:07:49.863Z,52.92
2022-12-08T02:10:19.318Z,56.70
2022-12-08T02:12:47.636Z,56.75
2022-12-08T02:15:15.134Z,55.63
2022-12-08T02:18:23.146Z,48.63
2022-12-08T02:20:49.681Z,48.17
2022-12-08T02:23:42.511Z,47.83
2022-12-08T02:26:27.046Z,58.90
2022-12-08T02:28:56.613Z,54.38
2022-12-08T02:31:41.736Z,44.25
2022-12-08T02:34:11.180Z,45.30
2022-12-08T02:36:59.652Z,44.30
2022-12-08T02:39:33.367Z,44.03
2022-12-08T02:42:16.068Z,45.80
2022-12-08T02:44:56.462Z,52.03
2022-12-08T02:47:25.085Z,53.35
2022-12-08T02:49:51.642Z,52.13
2022-12-08T02:52:18.165Z,40.15
2022-12-08T02:54:56.954Z,42.78
2022-12-08T02:57:51.576Z,38.42
2022-12-08T03:00:24.545Z,44.35
2022-12-08T03:03:16.203Z,42.25
2022-12-08T03:06:23.071Z,40.72
2022-12-08T03:09:02.645Z,42.67
2022-12-08T03:11:47.766Z,38.20
2022-12-08T03:14:17.466Z,40.33
2022-12-08T03:16:49.561Z,44.90
2022-12-08T03:19:20.084Z,42.78
2022-12-08T03:22:02.957Z,51.22
2022-12-08T03:24:36.763Z,48.20
2022-12-08T03:27:21.854Z,50.78
2022-12-08T03:29:51.303Z,44.63
2022-12-08T03:32:34.570Z,50.97
2022-12-08T03:35:05.376Z,50.03
2022-12-08T03:37:35.685Z,51.83
2022-12-08T03:40:04.411Z,63.10
2022-12-08T03:42:31.158Z,61.55
2022-12-08T03:44:57.734Z,63.97
2022-12-08T03:47:24.305Z,67.30
2022-12-08T03:49:50.894Z,51.85
2022-12-08T03:52:17.539Z,44.15
2022-12-08T03:54:44.118Z,48.10
2022-12-08T03:57:10.677Z,42.25
2022-12-08T03:59:37.304Z,48.95
2022-12-08T04:02:04.018Z,45.22
2022-12-08T04:04:30.792Z,45.55
2022-12-08T04:06:57.379Z,34.75
2022-12-08T04:09:24.003Z,38.10
2022-12-08T04:11:50.684Z,40.25
2022-12-08T04:14:17.253Z,43.25
2022-12-08T04:16:43.866Z,62.35
2022-12-08T04:19:10.412Z,57.15
2022-12-08T04:21:36.938Z,34.25
2022-12-08T04:24:03.717Z,39.47
2022-12-08T04:26:30.302Z,43.55
2022-12-08T04:28:56.898Z,38.42
2022-12-08T04:31:23.600Z,45.28
2022-12-08T04:33:50.187Z,40.75
2022-12-08T04:36:16.777Z,40.15
2022-12-08T04:38:43.310Z,41.55
2022-12-08T04:41:10.208Z,40.05
2022-12-08T04:43:37.205Z,44.13
2022-12-08T04:46:07.326Z,44.17
2022-12-08T04:48:34.317Z,71.70
2022-12-08T04:51:00.911Z,72.15
2022-12-08T04:53:27.469Z,68.68
2022-12-08T04:55:54.049Z,88.28
2022-12-08T04:58:21.417Z,106.82
2022-12-08T05:00:48.305Z,91.50
2022-12-08T05:03:15.867Z,67.68
2022-12-08T05:05:43.553Z,50.10
2022-12-08T05:08:10.970Z,49.47
2022-12-08T05:10:37.841Z,35.47
2022-12-08T05:13:04.407Z,44.72
2022-12-08T05:15:31.023Z,38.58
2022-12-08T05:17:57.599Z,36.10
2022-12-08T05:20:24.133Z,40.80
2022-12-08T05:22:50.722Z,45.47
2022-12-08T05:25:17.448Z,37.55
2022-12-08T05:27:44.045Z,41.38
2022-12-08T05:30:10.859Z,38.88
2022-12-08T05:32:37.449Z,37.88
2022-12-08T05:35:04.162Z,33.30
2022-12-08T05:37:31.019Z,38.15
2022-12-08T05:39:57.571Z,41.42
2022-12-08T05:42:25.171Z,38.47
2022-12-08T05:44:52.364Z,41.05
2022-12-08T05:47:18.997Z,36.55
2022-12-08T05:49:45.562Z,35.72
2022-12-08T05:52:12.141Z,75.13
2022-12-08T05:54:38.779Z,157.95
2022-12-08T05:57:05.365Z,90.72
2022-12-08T05:59:31.941Z,56.30
2022-12-08T06:01:58.578Z,48.60
2022-12-08T06:04:25.310Z,39.92
2022-12-08T06:06:52.376Z,33.15
2022-12-08T06:09:18.988Z,35.63
2022-12-08T06:11:47.157Z,32.97
2022-12-08T06:14:13.771Z,38.47
2022-12-08T06:16:40.521Z,39.95
2022-12-08T06:19:07.161Z,41.00
2022-12-08T06:21:33.788Z,45.00
2022-12-08T06:24:00.343Z,41.10
2022-12-08T06:26:26.998Z,44.92
2022-12-08T06:28:53.671Z,39.65
2022-12-08T06:31:23.048Z,45.70
2022-12-08T06:33:50.429Z,43.42
2022-12-08T06:36:19.417Z,39.40
2022-12-08T06:38:46.254Z,38.63
2022-12-08T06:41:13.899Z,36.75
2022-12-08T06:43:41.350Z,37.90
2022-12-08T06:46:11.566Z,46.50
2022-12-08T06:48:38.203Z,47.72
2022-12-08T06:51:10.918Z,38.50
2022-12-08T06:53:38.561Z,40.35
2022-12-08T06:56:06.332Z,42.78
2022-12-08T06:58:33.212Z,46.60
2022-12-08T07:01:08.540Z,54.97
2022-12-08T07:03:36.456Z,51.08
2022-12-08T07:06:04.319Z,47.45
2022-12-08T07:08:32.049Z,40.42
2022-12-08T07:10:58.913Z,47.83
2022-12-08T07:13:25.578Z,57.78
2022-12-08T07:15:52.241Z,59.22
2022-12-08T07:18:18.861Z,68.78
2022-12-08T07:20:45.513Z,70.15
2022-12-08T07:23:12.248Z,74.18
2022-12-08T07:25:38.949Z,52.47
2022-12-08T07:28:10.254Z,54.22
2022-12-08T07:30:37.091Z,48.00
2022-12-08T07:33:05.792Z,43.83
2022-12-08T07:35:34.844Z,49.45
2022-12-08T07:38:02.380Z,47.10
2022-12-08T07:40:29.164Z,53.38
2022-12-08T07:42:55.785Z,56.17
2022-12-08T07:45:24.670Z,48.50
2022-12-08T07:47:56.457Z,52.90
2022-12-08T07:50:23.348Z,57.03
2022-12-08T07:52:49.952Z,51.97
2022-12-08T07:55:16.562Z,47.55
2022-12-08T07:57:43.538Z,52.90
2022-12-08T08:00:10.942Z,50.92
2022-12-08T08:02:37.589Z,52.85
2022-12-08T08:05:04.774Z,47.72
2022-12-08T08:07:32.356Z,48.40
2022-12-08T08:09:59.022Z,44.08
2022-12-08T08:12:33.348Z,74.35
2022-12-08T08:15:01.810Z,63.38
2022-12-08T08:17:29.891Z,55.10
2022-12-08T08:19:56.942Z,51.92
2022-12-08T08:22:25.386Z,42.85
2022-12-08T08:24:52.149Z,37.63
2022-12-08T08:27:19.025Z,42.42
2022-12-08T08:29:45.686Z,45.58
2022-12-08T08:32:12.384Z,47.65
2022-12-08T08:34:39.347Z,44.42
2022-12-08T08:37:06.271Z,40.65
2022-12-08T08:39:33.050Z,38.35
2022-12-08T08:41:59.699Z,47.75
2022-12-08T08:44:26.382Z,37.03
2022-12-08T08:46:53.274Z,36.30
2022-12-08T08:49:20.366Z,42.70
2022-12-08T08:51:47.364Z,45.13
2022-12-08T08:54:14.134Z,43.20
2022-12-08T08:56:40.792Z,35.90
2022-12-08T08:59:07.724Z,36.30
2022-12-08T09:01:34.394Z,35.60
2022-12-08T09:04:01.637Z,33.60
2022-12-08T09:06:28.491Z,31.05
2022-12-08T09:08:55.371Z,36.83
2022-12-08T09:11:23.542Z,42.92
2022-12-08T09:13:51.822Z,36.55
2022-12-08T09:16:19.391Z,37.83
2022-12-08T09:18:46.342Z,42.55
2022-12-08T09:21:16.624Z,42.95
2022-12-08T09:23:43.536Z,38.17
2022-12-08T09:26:10.621Z,36.90
2022-12-08T09:28:37.864Z,43.05
2022-12-08T09:31:04.883Z,41.47
2022-12-08T09:33:31.755Z,39.08
2022-12-08T09:36:03.127Z,37.38
2022-12-08T09:38:29.847Z,31.85
2022-12-08T09:40:56.746Z,32.83
2022-12-08T09:43:51.697Z,45.20
2022-12-08T09:46:20.389Z,38.03
2022-12-08T09:48:56.039Z,35.38
2022-12-08T09:51:30.508Z,41.50
2022-12-08T09:54:18.376Z,61.67
2022-12-08T09:56:45.171Z,48.70
2022-12-08T09:59:22.894Z,37.67
2022-12-08T10:01:50.104Z,37.58
2022-12-08T10:04:22.328Z,38.90
2022-12-08T10:06:58.067Z,37.80
2022-12-08T10:09:43.582Z,37.33
2022-12-08T10:12:26.157Z,37.85
2022-12-08T10:14:52.639Z,34.83
2022-12-08T10:17:23.994Z,39.00
2022-12-08T10:19:57.740Z,36.92
2022-12-08T10:22:27.037Z,30.33
2022-12-08T10:25:19.124Z,29.80
2022-12-08T10:27:49.866Z,32.75
2022-12-08T10:30:19.047Z,37.60
2022-12-08T10:32:49.227Z,44.35
2022-12-08T10:35:18.272Z,43.20
2022-12-08T10:38:02.316Z,48.17
2022-12-08T10:40:40.581Z,35.65
2022-12-08T10:43:17.614Z,47.28
2022-12-08T10:45:45.079Z,35.60
2022-12-08T10:48:17.021Z,26.02
2022-12-08T10:50:54.488Z,27.52
2022-12-08T10:53:30.200Z,31.08
2022-12-08T10:56:02.562Z,42.35
2022-12-08T10:58:41.120Z,31.20
2022-12-08T11:01:18.914Z,27.23
2022-12-08T11:03:58.137Z,28.75
2022-12-08T11:06:32.266Z,26.98
2022-12-08T11:09:01.812Z,31.75
2022-12-08T11:11:55.365Z,28.45
2022-12-08T11:14:37.057Z,26.25
2022-12-08T11:17:13.671Z,27.27
2022-12-08T11:20:03.621Z,21.40
2022-12-08T11:22:30.673Z,23.17
2022-12-08T11:25:00.355Z,24.75
2022-12-08T11:27:27.036Z,22.60
2022-12-08T11:29:55.218Z,28.48
2022-12-08T11:32:22.526Z,27.45
2022-12-08T11:34:54.777Z,29.35
2022-12-08T11:37:34.507Z,34.80
2022-12-08T11:40:07.278Z,33.75
2022-12-08T11:42:53.692Z,33.08
2022-12-08T11:45:26.678Z,26.00
2022-12-08T11:48:08.676Z,29.17
2022-12-08T11:51:00.082Z,30.17
2022-12-08T11:53:34.162Z,28.90
2022-12-08T11:56:10.258Z,28.02
2022-12-08T11:58:46.192Z,21.95
2022-12-08T12:01:20.489Z,20.88
2022-12-08T12:04:09.651Z,24.58
2022-12-08T12:07:14.554Z,22.23
2022-12-08T12:10:08.488Z,22.58
2022-12-08T12:15:34.300Z,23.58
2022-12-08T12:18:16.475Z,23.20
2022-12-08T12:20:49.813Z,25.75
2022-12-08T12:23:35.222Z,32.33
2022-12-08T12:26:05.544Z,27.38
2022-12-08T12:28:57.476Z,34.45
2022-12-08T12:31:38.563Z,104.95
2022-12-08T12:34:11.664Z,63.63
2022-12-08T12:36:51.765Z,25.30
2022-12-08T12:39:26.340Z,25.92
2022-12-08T12:42:01.564Z,34.60
2022-12-08T12:44:28.050Z,27.77
2022-12-08T12:46:59.152Z,23.98
2022-12-08T12:49:40.988Z,19.02
2022-12-08T12:52:10.540Z,23.05
2022-12-08T12:54:42.888Z,25.80
2022-12-08T12:57:09.757Z,22.80
2022-12-08T12:59:55.191Z,22.77
2022-12-08T13:02:33.724Z,19.52
2022-12-08T13:05:16.358Z,23.60
2022-12-08T13:08:03.527Z,22.30
2022-12-08T13:10:30.076Z,20.13
2022-12-08T13:13:05.709Z,18.92
2022-12-08T13:15:38.831Z,20.95
2022-12-08T13:18:07.586Z,19.02
2022-12-08T13:20:45.996Z,22.42
2022-12-08T13:23:37.309Z,19.13
2022-12-08T13:26:16.077Z,21.50
2022-12-08T13:29:20.160Z,17.85
2022-12-08T13:31:51.076Z,20.25
2022-12-08T13:34:41.303Z,20.95
2022-12-08T13:37:10.575Z,19.20
2022-12-08T13:39:40.165Z,19.85
2022-12-08T13:42:12.796Z,20.58
2022-12-08T13:45:21.293Z,20.15
2022-12-08T13:48:27.025Z,18.80
2022-12-08T13:57:26.931Z,19.88
2022-12-08T13:59:53.582Z,18.73
2022-12-08T14:02:47.799Z,21.40
2022-12-08T14:05:18.958Z,18.60
2022-12-08T14:08:10.139Z,17.33
2022-12-08T14:10:36.837Z,17.23
2022-12-08T14:13:12.382Z,18.23
2022-12-08T14:15:40.194Z,17.13
2022-12-08T14:18:23.741Z,20.20
2022-12-08T14:21:20.859Z,17.90
2022-12-08T14:23:48.103Z,19.75
2022-12-08T14:26:14.746Z,18.02
2022-12-08T14:28:44.951Z,18.15
2022-12-08T14:31:14.056Z,22.17
2022-12-08T14:33:40.899Z,15.70
2022-12-08T14:36:09.860Z,22.38
2022-12-08T14:38:36.501Z,20.25
2022-12-08T14:41:04.809Z,22.20
2022-12-08T14:43:32.619Z,24.80
2022-12-08T14:46:02.372Z,26.92
2022-12-08T14:48:34.836Z,30.27
2022-12-08T14:51:04.225Z,26.52
2022-12-08T14:53:40.348Z,25.00
2022-12-08T14:56:13.087Z,28.23
2022-12-08T14:58:39.828Z,29.15
2022-12-08T15:01:08.335Z,31.88
2022-12-08T15:03:35.037Z,33.50
2022-12-08T15:06:06.361Z,46.20
2022-12-08T15:08:34.853Z,50.75
2022-12-08T15:11:36.526Z,51.65
2022-12-08T15:14:03.261Z,60.58
2022-12-08T15:16:42.927Z,64.72
2022-12-08T15:19:28.411Z,75.75
2022-12-08T15:21:58.270Z,66.82
2022-12-08T15:24:29.642Z,77.35
2022-12-08T15:26:56.369Z,64.72
2022-12-08T15:29:25.482Z,61.50
2022-12-08T15:31:54.656Z,60.35
2022-12-08T15:34:21.894Z,54.28
2022-12-08T15:36:51.165Z,51.83
2022-12-08T15:39:37.507Z,49.20
2022-12-08T15:42:10.528Z,62.72
2022-12-08T15:44:37.103Z,67.07
2022-12-08T15:47:04.063Z,58.53
2022-12-08T15:49:30.863Z,69.10
2022-12-08T15:52:09.286Z,74.18
2022-12-08T15:54:38.045Z,81.95
2022-12-08T15:57:19.573Z,82.40
2022-12-08T15:59:52.373Z,69.65
2022-12-08T16:02:22.513Z,60.00
2022-12-08T16:07:38.263Z,68.60
2022-12-08T16:10:06.872Z,68.72
2022-12-08T16:16:01.017Z,63.65
2022-12-08T16:18:32.717Z,64.93
2022-12-08T16:23:46.131Z,61.45
2022-12-08T16:27:01.132Z,64.82
2022-12-08T16:29:06.950Z,73.20
2022-12-08T16:31:33.890Z,77.38
2022-12-08T16:34:00.665Z,70.10
2022-12-08T16:36:27.285Z,63.67
2022-12-08T16:38:53.922Z,66.32
2022-12-08T16:41:39.381Z,69.03
2022-12-08T16:44:06.706Z,77.82
2022-12-08T16:46:33.749Z,62.58
2022-12-08T16:49:00.381Z,56.15
2022-12-08T16:51:27.628Z,57.83
2022-12-08T16:53:56.882Z,71.60
2022-12-08T16:56:28.959Z,70.75
2022-12-08T16:58:58.723Z,62.47
2022-12-08T17:01:25.377Z,74.15
2022-12-08T17:04:14.756Z,72.22
2022-12-08T17:06:38.626Z,62.72
2022-12-08T17:09:05.440Z,56.13
2022-12-08T17:11:37.439Z,51.40
2022-12-08T17:14:09.264Z,56.17
2022-12-08T17:16:35.938Z,52.97
2022-12-08T17:19:02.629Z,59.05
2022-12-08T17:21:29.250Z,78.75
2022-12-08T17:23:55.965Z,64.53
2022-12-08T17:26:22.555Z,67.63
2022-12-08T17:29:00.602Z,64.55
2022-12-08T17:31:30.615Z,62.45
2022-12-08T17:34:02.331Z,58.13
2022-12-08T17:36:29.491Z,56.40
2022-12-08T17:38:58.333Z,74.47
2022-12-08T17:41:24.999Z,69.30
2022-12-08T17:43:51.710Z,71.13
2022-12-08T17:46:19.029Z,76.85
2022-12-08T17:48:45.710Z,67.82
2022-12-08T17:51:12.288Z,66.40
2022-12-08T17:53:40.828Z,61.10
2022-12-08T17:56:18.345Z,72.88
2022-12-08T17:58:46.616Z,77.35
2022-12-08T18:01:16.431Z,63.22
2022-12-08T18:03:43.119Z,76.55
2022-12-08T18:06:12.380Z,91.32
2022-12-08T18:08:40.115Z,90.13
2022-12-08T18:11:12.362Z,86.03
2022-12-08T18:13:39.008Z,79.88
2022-12-08T18:16:05.743Z,70.45
2022-12-08T18:18:32.319Z,75.55
2022-12-08T18:20:58.872Z,79.38
2022-12-08T18:23:25.418Z,84.38
2022-12-08T18:25:51.998Z,83.68
2022-12-08T18:28:18.595Z,66.00
2022-12-08T18:30:45.225Z,55.20
2022-12-08T18:33:11.844Z,66.22
2022-12-08T18:35:41.646Z,70.75
2022-12-08T18:38:08.227Z,71.30
2022-12-08T18:40:34.846Z,60.78
2022-12-08T18:43:01.468Z,59.95
2022-12-08T18:45:28.194Z,72.97
2022-12-08T18:47:55.008Z,60.70
2022-12-08T18:50:21.581Z,54.15
2022-12-08T18:52:48.329Z,78.78
2022-12-08T18:55:15.595Z,78.30
2022-12-08T18:57:43.331Z,78.35
2022-12-08T19:00:13.467Z,96.57
2022-12-08T19:02:41.048Z,91.82
2022-12-08T19:05:10.291Z,87.25
2022-12-08T19:07:37.315Z,80.72
2022-12-08T19:10:05.878Z,69.55
2022-12-08T19:12:32.749Z,83.55
2022-12-08T19:14:59.345Z,62.75
2022-12-08T19:17:26.044Z,57.05
2022-12-08T19:19:52.649Z,48.95
2022-12-08T19:22:19.187Z,55.97
2022-12-08T19:24:46.244Z,50.50
2022-12-08T19:27:12.789Z,49.67
2022-12-08T19:29:39.437Z,51.40
2022-12-08T19:32:06.164Z,51.78
2022-12-08T19:34:32.770Z,45.75
2022-12-08T19:36:59.348Z,46.83
2022-12-08T19:39:44.441Z,49.13
2022-12-08T19:42:38.602Z,44.65
2022-12-08T19:45:11.922Z,38.63
2022-12-08T19:47:39.410Z,36.83
2022-12-08T19:50:26.429Z,50.47
2022-12-08T19:52:53.258Z,66.25
2022-12-08T19:55:20.577Z,59.13
2022-12-08T19:57:47.187Z,56.63
2022-12-08T20:00:14.205Z,61.88
2022-12-08T20:02:40.906Z,70.97
2022-12-08T20:05:08.788Z,65.28
2022-12-08T20:07:35.474Z,52.95
2022-12-08T20:10:05.553Z,48.83
2022-12-08T20:12:32.403Z,53.45
2022-12-08T20:14:58.934Z,57.97
2022-12-08T20:17:25.598Z,68.20
2022-12-08T20:19:52.322Z,70.90
2022-12-08T20:22:18.891Z,68.88
2022-12-08T20:24:48.938Z,56.17
2022-12-08T20:27:18.877Z,56.28
2022-12-08T20:29:45.443Z,59.13
2022-12-08T20:32:12.190Z,62.60
2022-12-08T20:34:38.798Z,49.60
2022-12-08T20:37:05.506Z,45.20
2022-12-08T20:39:32.120Z,37.20
2022-12-08T20:42:00.121Z,49.75
2022-12-08T20:44:29.461Z,46.38
2022-12-08T20:46:56.472Z,55.25
2022-12-08T20:49:23.383Z,52.08
2022-12-08T20:51:50.163Z,52.75
2022-12-08T20:54:16.871Z,48.38
2022-12-08T20:56:48.060Z,48.97
2022-12-08T20:59:20.498Z,45.53
2022-12-08T21:01:47.299Z,44.05
2022-12-08T21:04:14.161Z,41.40
2022-12-08T21:06:40.980Z,37.92
2022-12-08T21:09:07.781Z,38.05
2022-12-08T21:11:35.857Z,31.10
2022-12-08T21:14:02.723Z,36.28
2022-12-08T21:16:29.475Z,35.45
2022-12-08T21:18:56.525Z,34.03
2022-12-08T21:21:23.260Z,30.50
2022-12-08T21:23:50.115Z,44.17
2022-12-08T21:26:20.518Z,32.95
2022-12-08T21:28:47.668Z,38.88
2022-12-08T21:31:17.207Z,49.13
2022-12-08T21:33:44.423Z,38.60
2022-12-08T21:36:14.046Z,38.72
2022-12-08T21:38:41.195Z,49.78
2022-12-08T21:41:11.396Z,36.28
2022-12-08T21:43:38.082Z,34.35
2022-12-08T21:46:05.938Z,33.28
2022-12-08T21:48:32.939Z,34.83
2022-12-08T21:51:06.121Z,34.85
2022-12-08T21:53:32.765Z,33.15
2022-12-08T21:55:59.484Z,29.92
2022-12-08T21:58:26.423Z,33.95
2022-12-08T22:00:53.352Z,33.05
2022-12-08T22:03:20.246Z,29.15
2022-12-08T22:05:47.027Z,34.88
2022-12-08T22:08:13.806Z,29.17
2022-12-08T22:10:40.694Z,36.03
2022-12-08T22:13:07.339Z,26.65
2022-12-08T22:15:34.212Z,30.98
2022-12-08T22:18:01.081Z,27.40
2022-12-08T22:20:27.815Z,30.88
2022-12-08T22:22:54.558Z,34.13
2022-12-08T22:25:21.215Z,34.22
2022-12-08T22:27:47.871Z,32.20
2022-12-08T22:30:14.576Z,36.72
2022-12-08T22:32:41.968Z,40.80
2022-12-08T22:35:09.628Z,44.33
2022-12-08T22:37:36.315Z,38.70
2022-12-08T22:40:03.186Z,35.70
2022-12-08T22:42:30.228Z,30.00
2022-12-08T22:44:56.804Z,30.00
2022-12-08T22:47:23.445Z,29.10
2022-12-08T22:49:49.987Z,33.67
2022-12-08T22:52:16.684Z,34.97
2022-12-08T22:54:43.268Z,36.53
2022-12-08T22:57:10.267Z,30.27
2022-12-08T22:59:37.622Z,30.00
2022-12-08T23:02:04.175Z,36.00
2022-12-08T23:04:30.933Z,31.85
2022-12-08T23:06:57.787Z,37.15
2022-12-08T23:09:24.372Z,34.60
2022-12-08T23:11:51.037Z,29.02
2022-12-08T23:14:17.805Z,34.47
2022-12-08T23:16:44.893Z,27.52
2022-12-08T23:19:11.546Z,31.45
2022-12-08T23:21:38.316Z,27.15
2022-12-08T23:24:05.315Z,28.35
2022-12-08T23:26:33.692Z,31.40
2022-12-08T23:29:01.199Z,30.17
2022-12-08T23:31:28.468Z,29.40
2022-12-08T23:33:55.599Z,23.88
2022-12-08T23:36:26.267Z,28.30
2022-12-08T23:38:54.259Z,25.55
2022-12-08T23:41:21.361Z,29.73
2022-12-08T23:43:50.233Z,27.65
2022-12-08T23:46:19.729Z,30.83
2022-12-08T23:48:46.566Z,31.17
2022-12-08T23:51:13.675Z,28.80
2022-12-08T23:53:40.661Z,24.60
2022-12-08T23:56:10.590Z,31.60
2022-12-08T23:58:37.568Z,25.02
